BODO_VI_(CIV/MIL) current weather conditions

sailwx.info

Wind from 130 at 13 knots

Air temperature 5.0° C
Visibility: greater than 5.4 NM
Dewpoint -3.0° C

Last reported at 2019-Dec-12 22:20 UTC.
Time now 2019-Dec-12 23:39 UTC

Location: N 67°16' E 014°22'.
View on Google Maps.

See reports from other nearby stations

  
Tides and Currents Weather Stations Pressure Air Temp Water Temp Dewpoint Dewpoint Depression Visibility Wind Speed Wind Dir Waves Ship Positions
date/time (UTC)wind fromknots sea level pressurealtimeterstation pressurevisibilityair tempwater tempwave heightnotes
2019-Dec-12 22:20 130 13 5.4 5.0
2019-Dec-12 21:50 130 17 5.4 5.0
2019-Dec-12 21:20 130 15 5.4 5.0
2019-Dec-12 20:50 120 14 5.4 4.0
2019-Dec-12 20:20 120 13 5.4 4.0
2019-Dec-12 19:50 110 14 5.4 4.0
2019-Dec-12 19:20 110 14 5.4 4.0
2019-Dec-12 18:50 120 13 5.4 5.0
2019-Dec-12 18:20 130 13 5.4 5.0
2019-Dec-12 17:50 130 13 5.4 5.0
2019-Dec-12 17:20 140 17 5.4 5.0
2019-Dec-12 16:50 130 13 5.4 5.0
2019-Dec-12 16:20 120 14 5.4 5.0
2019-Dec-12 15:50 120 14 5.4 4.0
2019-Dec-12 15:20 120 13 5.4 4.0
2019-Dec-12 14:50 120 13 5.4 4.0
2019-Dec-12 14:20 120 14 5.4 4.0
2019-Dec-12 13:50 120 13 5.4 5.0
2019-Dec-12 13:20 120 13 5.4 4.0
2019-Dec-12 12:50 110 13 5.4 4.0
2019-Dec-12 12:20 100 13 5.4 4.0
2019-Dec-12 11:50 110 14 5.4 4.0
2019-Dec-12 11:20 110 18 5.4 4.0
2019-Dec-12 10:50 130 20 5.4 4.0
2019-Dec-12 10:20 130 20 5.4 4.0
2019-Dec-12 09:50 130 15 5.4 4.0
2019-Dec-12 09:20 120 13 5.4 4.0
2019-Dec-12 08:50 120 18 5.4 4.0
2019-Dec-12 08:20 120 15 5.4 4.0
2019-Dec-12 07:50 100 15 5.4 4.0
2019-Dec-12 07:20 110 19 5.4 4.0
2019-Dec-12 06:50 110 20 5.4 4.0
2019-Dec-12 06:20 100 15 gusting 26 5.4 4.0
2019-Dec-12 05:50 110 19 5.4 4.0
2019-Dec-12 05:20 110 17 5.4 4.0
2019-Dec-12 04:50 100 21 5.4 4.0
2019-Dec-12 04:20 110 15 5.4 4.0
2019-Dec-12 03:50 100 15 5.4 4.0
2019-Dec-12 02:50 110 13 5.4 4.0
2019-Dec-12 01:50 100 13 5.4 4.0
2019-Dec-12 00:50 130 15 5.4 5.0
2019-Dec-11 23:50 140 14 5.4 6.0
2019-Dec-11 22:50 100 13 5.4 4.0
2019-Dec-11 22:20 100 15 5.4 4.0
2019-Dec-11 21:50 100 13 5.4 4.0
2019-Dec-11 21:20 100 12 5.4 3.0
2019-Dec-11 20:50 110 14 5.4 3.0
2019-Dec-11 20:20 130 12 5.4 3.0
2019-Dec-11 19:50 220 13 gusting 24 5.4 3.0 Light rain showers.
2019-Dec-11 19:20 220 26 5.4 3.0 Light rain showers.
2019-Dec-11 18:50 140 11 5.4 5.0
2019-Dec-11 18:20 200 21 5.4 5.0 Light rain showers.
2019-Dec-11 17:50 200 13 gusting 27 5.4 5.0 Light rain showers.
2019-Dec-11 17:20 230 27 gusting 42 5.4 3.0 Rain showers.
2019-Dec-11 16:50 190 13 gusting 25 5.4 4.0
2019-Dec-11 16:20 160 14 5.4 4.0 Showers in the vicinity.
2019-Dec-11 15:50 220 22 5.4 3.0 Rain showers.
2019-Dec-11 15:20 180 8 5.4 4.0
2019-Dec-11 14:50 220 26 gusting 35 5.4 4.0 Light rain showers.
2019-Dec-11 14:20 200 9 5.4 5.0 Light rain showers.
2019-Dec-11 13:50 160 11 5.4 5.0 Showers in the vicinity.
2019-Dec-11 13:20 150 8 5.4 4.0 Showers in the vicinity.
2019-Dec-11 12:50 160 12 5.4 4.0 Showers in the vicinity.
2019-Dec-11 12:20 120 13 5.4 3.0
2019-Dec-11 11:50 090 20 5.4 2.0 Showers in the vicinity.
2019-Dec-11 11:20 090 20 5.4 1.0 Light rain showers.
2019-Dec-11 10:50 090 20 5.4 1.0 Light rain.
2019-Dec-11 10:20 090 20 5.4 1.0 Light drizzle snow.
2019-Dec-11 09:50 120 12 5.4 1.0 Light drizzle snow.
2019-Dec-11 09:20 120 13 5.4 2.0 Light rain.
2019-Dec-11 08:50 130 14 5.4 2.0 Light drizzle snow.
2019-Dec-11 07:50 090 20 4.9 1.0 Light snow.
2019-Dec-11 07:20 090 21 5.4 1.0 Light drizzle snow.
2019-Dec-11 06:50 090 25 5.4-0.0 Light snow.
2019-Dec-11 06:20 090 21 5.4-0.0 Light snow.
2019-Dec-11 05:50 100 17 4.3 1.0 Light snow.
2019-Dec-11 05:20 100 19 3.8 1.0 Light snow.
2019-Dec-11 04:50 100 20 5.4 1.0 Light snow.
2019-Dec-11 04:20 110 20 5.4 1.0
2019-Dec-11 03:50 120 20 gusting 32 5.4 1.0 Light low drifting snow.
2019-Dec-11 02:50 120 21 gusting 34 5.4 1.0 Light low drifting snow.
2019-Dec-11 01:50 120 22 gusting 33 5.4-0.0 Blowing snow.
2019-Dec-11 00:50 110 22 5.4-0.0 Light low drifting snow.
2019-Dec-10 23:50 110 28 5.4-0.0 Light low drifting snow.